sensor_id;sensor_type;location;lat;lon;timestamp;P1;durP1;ratioP1;P2;durP2;ratioP2
70576;SDS011;58138;43.138;24.702;2022-07-30T00:02:01;6.78;;;4.55;;
70576;SDS011;58138;43.138;24.702;2022-07-30T00:04:26;5.35;;;4.82;;
70576;SDS011;58138;43.138;24.702;2022-07-30T00:06:52;5.88;;;4.97;;
70576;SDS011;58138;43.138;24.702;2022-07-30T00:09:17;7.43;;;4.90;;
70576;SDS011;58138;43.138;24.702;2022-07-30T00:11:43;7.53;;;5.22;;
70576;SDS011;58138;43.138;24.702;2022-07-30T00:14:09;9.02;;;5.30;;
70576;SDS011;58138;43.138;24.702;2022-07-30T00:16:35;5.80;;;4.50;;
70576;SDS011;58138;43.138;24.702;2022-07-30T00:19:00;5.57;;;4.35;;
70576;SDS011;58138;43.138;24.702;2022-07-30T00:21:26;7.32;;;4.53;;
70576;SDS011;58138;43.138;24.702;2022-07-30T00:23:52;4.55;;;3.67;;
70576;SDS011;58138;43.138;24.702;2022-07-30T00:26:18;5.93;;;4.60;;
70576;SDS011;58138;43.138;24.702;2022-07-30T00:28:43;7.20;;;4.55;;
70576;SDS011;58138;43.138;24.702;2022-07-30T00:31:09;5.65;;;4.45;;
70576;SDS011;58138;43.138;24.702;2022-07-30T00:33:34;8.30;;;4.55;;
70576;SDS011;58138;43.138;24.702;2022-07-30T00:36:00;5.60;;;4.30;;
70576;SDS011;58138;43.138;24.702;2022-07-30T00:38:25;5.13;;;4.20;;
70576;SDS011;58138;43.138;24.702;2022-07-30T00:40:50;6.35;;;4.68;;
70576;SDS011;58138;43.138;24.702;2022-07-30T00:43:16;9.27;;;4.72;;
70576;SDS011;58138;43.138;24.702;2022-07-30T00:45:42;5.88;;;4.40;;
70576;SDS011;58138;43.138;24.702;2022-07-30T00:48:09;6.55;;;4.97;;
70576;SDS011;58138;43.138;24.702;2022-07-30T00:50:35;8.25;;;5.00;;
70576;SDS011;58138;43.138;24.702;2022-07-30T00:53:01;5.90;;;4.88;;
70576;SDS011;58138;43.138;24.702;2022-07-30T00:55:26;8.88;;;5.05;;
70576;SDS011;58138;43.138;24.702;2022-07-30T00:57:52;10.23;;;5.13;;
70576;SDS011;58138;43.138;24.702;2022-07-30T01:00:17;6.43;;;4.75;;
70576;SDS011;58138;43.138;24.702;2022-07-30T01:02:43;6.75;;;4.75;;
70576;SDS011;58138;43.138;24.702;2022-07-30T01:05:09;6.40;;;4.75;;
70576;SDS011;58138;43.138;24.702;2022-07-30T01:07:34;7.97;;;4.95;;
70576;SDS011;58138;43.138;24.702;2022-07-30T01:10:00;7.65;;;4.85;;
70576;SDS011;58138;43.138;24.702;2022-07-30T01:12:26;7.75;;;5.00;;
70576;SDS011;58138;43.138;24.702;2022-07-30T01:14:52;8.93;;;4.68;;
70576;SDS011;58138;43.138;24.702;2022-07-30T01:17:20;5.00;;;4.50;;
70576;SDS011;58138;43.138;24.702;2022-07-30T01:19:45;6.22;;;4.65;;
70576;SDS011;58138;43.138;24.702;2022-07-30T01:27:24;7.35;;;5.18;;
70576;SDS011;58138;43.138;24.702;2022-07-30T01:29:51;5.57;;;5.07;;
70576;SDS011;58138;43.138;24.702;2022-07-30T01:32:17;6.43;;;4.72;;
70576;SDS011;58138;43.138;24.702;2022-07-30T01:34:43;9.20;;;5.13;;
70576;SDS011;58138;43.138;24.702;2022-07-30T01:37:09;7.47;;;4.82;;
70576;SDS011;58138;43.138;24.702;2022-07-30T01:39:36;8.32;;;5.00;;
70576;SDS011;58138;43.138;24.702;2022-07-30T01:42:01;8.32;;;4.85;;
70576;SDS011;58138;43.138;24.702;2022-07-30T01:44:31;8.52;;;5.22;;
70576;SDS011;58138;43.138;24.702;2022-07-30T01:46:57;7.43;;;4.88;;
70576;SDS011;58138;43.138;24.702;2022-07-30T01:49:23;7.80;;;5.03;;
70576;SDS011;58138;43.138;24.702;2022-07-30T01:51:52;8.23;;;5.28;;
70576;SDS011;58138;43.138;24.702;2022-07-30T01:54:18;9.73;;;5.25;;
70576;SDS011;58138;43.138;24.702;2022-07-30T01:56:46;9.45;;;5.10;;
70576;SDS011;58138;43.138;24.702;2022-07-30T01:59:12;8.43;;;5.30;;
70576;SDS011;58138;43.138;24.702;2022-07-30T02:01:40;10.23;;;5.55;;
70576;SDS011;58138;43.138;24.702;2022-07-30T02:04:05;7.32;;;5.68;;
70576;SDS011;58138;43.138;24.702;2022-07-30T02:06:33;6.25;;;4.85;;
70576;SDS011;58138;43.138;24.702;2022-07-30T02:09:08;6.90;;;5.20;;
70576;SDS011;58138;43.138;24.702;2022-07-30T02:11:44;7.30;;;4.90;;
70576;SDS011;58138;43.138;24.702;2022-07-30T02:14:28;8.50;;;5.05;;
70576;SDS011;58138;43.138;24.702;2022-07-30T02:17:03;9.00;;;5.10;;
70576;SDS011;58138;43.138;24.702;2022-07-30T02:19:35;9.02;;;5.22;;
70576;SDS011;58138;43.138;24.702;2022-07-30T02:22:05;6.05;;;4.82;;
70576;SDS011;58138;43.138;24.702;2022-07-30T02:24:33;6.10;;;4.93;;
70576;SDS011;58138;43.138;24.702;2022-07-30T02:27:00;9.18;;;5.05;;
70576;SDS011;58138;43.138;24.702;2022-07-30T02:29:34;8.95;;;5.45;;
70576;SDS011;58138;43.138;24.702;2022-07-30T02:32:01;7.57;;;5.75;;
70576;SDS011;58138;43.138;24.702;2022-07-30T02:34:30;10.65;;;5.90;;
70576;SDS011;58138;43.138;24.702;2022-07-30T02:36:57;8.63;;;6.03;;
70576;SDS011;58138;43.138;24.702;2022-07-30T02:39:22;9.07;;;6.03;;
70576;SDS011;58138;43.138;24.702;2022-07-30T02:41:49;9.10;;;5.88;;
70576;SDS011;58138;43.138;24.702;2022-07-30T02:44:17;13.80;;;5.85;;
70576;SDS011;58138;43.138;24.702;2022-07-30T02:46:43;8.68;;;4.95;;
70576;SDS011;58138;43.138;24.702;2022-07-30T02:49:09;5.93;;;5.07;;
70576;SDS011;58138;43.138;24.702;2022-07-30T02:51:36;6.85;;;5.20;;
70576;SDS011;58138;43.138;24.702;2022-07-30T02:54:02;11.80;;;5.07;;
70576;SDS011;58138;43.138;24.702;2022-07-30T02:56:28;6.70;;;5.28;;
70576;SDS011;58138;43.138;24.702;2022-07-30T02:58:54;6.35;;;4.88;;
70576;SDS011;58138;43.138;24.702;2022-07-30T03:01:20;5.47;;;4.97;;
70576;SDS011;58138;43.138;24.702;2022-07-30T03:03:47;6.22;;;5.40;;
70576;SDS011;58138;43.138;24.702;2022-07-30T03:06:13;5.57;;;4.97;;
70576;SDS011;58138;43.138;24.702;2022-07-30T03:08:40;7.78;;;5.30;;
70576;SDS011;58138;43.138;24.702;2022-07-30T03:11:07;11.88;;;5.70;;
70576;SDS011;58138;43.138;24.702;2022-07-30T03:13:34;10.05;;;5.72;;
70576;SDS011;58138;43.138;24.702;2022-07-30T03:16:00;9.15;;;5.72;;
70576;SDS011;58138;43.138;24.702;2022-07-30T03:18:27;8.95;;;5.30;;
70576;SDS011;58138;43.138;24.702;2022-07-30T03:20:56;11.25;;;5.63;;
70576;SDS011;58138;43.138;24.702;2022-07-30T03:23:23;8.48;;;6.20;;
70576;SDS011;58138;43.138;24.702;2022-07-30T03:25:56;10.15;;;6.22;;
70576;SDS011;58138;43.138;24.702;2022-07-30T03:28:25;9.45;;;5.32;;
70576;SDS011;58138;43.138;24.702;2022-07-30T03:30:52;8.50;;;4.95;;
70576;SDS011;58138;43.138;24.702;2022-07-30T03:33:18;8.55;;;5.38;;
70576;SDS011;58138;43.138;24.702;2022-07-30T03:35:44;9.77;;;5.15;;
70576;SDS011;58138;43.138;24.702;2022-07-30T03:38:14;6.15;;;5.40;;
70576;SDS011;58138;43.138;24.702;2022-07-30T03:40:40;9.20;;;6.13;;
70576;SDS011;58138;43.138;24.702;2022-07-30T03:43:07;11.85;;;5.85;;
70576;SDS011;58138;43.138;24.702;2022-07-30T03:45:35;14.73;;;10.52;;
70576;SDS011;58138;43.138;24.702;2022-07-30T03:48:01;7.78;;;5.50;;
70576;SDS011;58138;43.138;24.702;2022-07-30T03:50:28;8.10;;;5.20;;
70576;SDS011;58138;43.138;24.702;2022-07-30T03:52:54;10.60;;;8.13;;
70576;SDS011;58138;43.138;24.702;2022-07-30T03:55:20;7.65;;;5.45;;
70576;SDS011;58138;43.138;24.702;2022-07-30T03:57:46;7.45;;;5.28;;
70576;SDS011;58138;43.138;24.702;2022-07-30T04:00:13;9.68;;;7.55;;
70576;SDS011;58138;43.138;24.702;2022-07-30T04:02:42;10.70;;;5.32;;
70576;SDS011;58138;43.138;24.702;2022-07-30T04:05:08;11.27;;;7.35;;
70576;SDS011;58138;43.138;24.702;2022-07-30T04:07:35;5.82;;;4.75;;
70576;SDS011;58138;43.138;24.702;2022-07-30T04:10:01;8.50;;;5.38;;
70576;SDS011;58138;43.138;24.702;2022-07-30T04:12:27;9.70;;;6.60;;
70576;SDS011;58138;43.138;24.702;2022-07-30T04:14:52;6.93;;;5.75;;
70576;SDS011;58138;43.138;24.702;2022-07-30T04:17:26;6.82;;;5.68;;
70576;SDS011;58138;43.138;24.702;2022-07-30T04:20:02;6.85;;;5.75;;
70576;SDS011;58138;43.138;24.702;2022-07-30T04:22:32;9.55;;;5.80;;
70576;SDS011;58138;43.138;24.702;2022-07-30T04:25:01;9.57;;;5.00;;
70576;SDS011;58138;43.138;24.702;2022-07-30T04:27:28;11.32;;;7.45;;
70576;SDS011;58138;43.138;24.702;2022-07-30T04:29:55;8.48;;;5.78;;
70576;SDS011;58138;43.138;24.702;2022-07-30T04:32:21;8.07;;;5.18;;
70576;SDS011;58138;43.138;24.702;2022-07-30T04:34:47;7.53;;;4.97;;
70576;SDS011;58138;43.138;24.702;2022-07-30T04:37:17;10.05;;;5.03;;
70576;SDS011;58138;43.138;24.702;2022-07-30T04:39:43;7.35;;;5.45;;
70576;SDS011;58138;43.138;24.702;2022-07-30T04:42:09;7.57;;;5.57;;
70576;SDS011;58138;43.138;24.702;2022-07-30T04:44:35;8.20;;;5.88;;
70576;SDS011;58138;43.138;24.702;2022-07-30T04:47:01;6.88;;;6.13;;
70576;SDS011;58138;43.138;24.702;2022-07-30T04:49:26;9.07;;;5.53;;
70576;SDS011;58138;43.138;24.702;2022-07-30T04:51:52;6.40;;;5.40;;
70576;SDS011;58138;43.138;24.702;2022-07-30T04:54:18;6.68;;;4.97;;
70576;SDS011;58138;43.138;24.702;2022-07-30T04:56:46;6.78;;;5.20;;
70576;SDS011;58138;43.138;24.702;2022-07-30T04:59:12;9.27;;;6.43;;
70576;SDS011;58138;43.138;24.702;2022-07-30T05:01:37;12.23;;;7.68;;
70576;SDS011;58138;43.138;24.702;2022-07-30T05:04:03;6.72;;;5.07;;
70576;SDS011;58138;43.138;24.702;2022-07-30T05:06:30;8.13;;;4.70;;
70576;SDS011;58138;43.138;24.702;2022-07-30T05:08:57;10.90;;;5.25;;
70576;SDS011;58138;43.138;24.702;2022-07-30T05:11:22;7.97;;;5.72;;
70576;SDS011;58138;43.138;24.702;2022-07-30T05:13:48;6.28;;;5.22;;
70576;SDS011;58138;43.138;24.702;2022-07-30T05:16:14;6.45;;;4.80;;
70576;SDS011;58138;43.138;24.702;2022-07-30T05:18:39;9.75;;;5.03;;
70576;SDS011;58138;43.138;24.702;2022-07-30T05:21:05;8.13;;;5.32;;
70576;SDS011;58138;43.138;24.702;2022-07-30T05:23:31;8.85;;;5.05;;
70576;SDS011;58138;43.138;24.702;2022-07-30T05:25:56;9.23;;;5.60;;
70576;SDS011;58138;43.138;24.702;2022-07-30T05:28:22;12.30;;;5.20;;
70576;SDS011;58138;43.138;24.702;2022-07-30T05:30:50;12.27;;;4.80;;
70576;SDS011;58138;43.138;24.702;2022-07-30T05:33:17;13.27;;;9.70;;
70576;SDS011;58138;43.138;24.702;2022-07-30T05:35:43;7.60;;;5.22;;
70576;SDS011;58138;43.138;24.702;2022-07-30T05:38:08;7.95;;;4.97;;
70576;SDS011;58138;43.138;24.702;2022-07-30T05:40:34;9.88;;;5.15;;
70576;SDS011;58138;43.138;24.702;2022-07-30T05:42:59;16.38;;;5.85;;
70576;SDS011;58138;43.138;24.702;2022-07-30T05:45:25;8.27;;;5.10;;
70576;SDS011;58138;43.138;24.702;2022-07-30T05:47:50;11.23;;;5.40;;
70576;SDS011;58138;43.138;24.702;2022-07-30T05:50:16;10.00;;;4.78;;
70576;SDS011;58138;43.138;24.702;2022-07-30T05:52:41;9.43;;;4.93;;
70576;SDS011;58138;43.138;24.702;2022-07-30T05:55:07;15.00;;;5.10;;
70576;SDS011;58138;43.138;24.702;2022-07-30T05:57:36;6.38;;;4.90;;
70576;SDS011;58138;43.138;24.702;2022-07-30T06:00:05;9.02;;;5.13;;
70576;SDS011;58138;43.138;24.702;2022-07-30T06:02:31;6.72;;;4.80;;
70576;SDS011;58138;43.138;24.702;2022-07-30T06:04:57;6.78;;;4.25;;
70576;SDS011;58138;43.138;24.702;2022-07-30T06:07:23;10.02;;;4.55;;
70576;SDS011;58138;43.138;24.702;2022-07-30T06:09:48;8.85;;;4.55;;
70576;SDS011;58138;43.138;24.702;2022-07-30T06:12:14;10.80;;;4.93;;
70576;SDS011;58138;43.138;24.702;2022-07-30T06:14:39;9.65;;;4.40;;
70576;SDS011;58138;43.138;24.702;2022-07-30T06:17:05;7.75;;;6.55;;
70576;SDS011;58138;43.138;24.702;2022-07-30T06:19:30;7.43;;;4.47;;
70576;SDS011;58138;43.138;24.702;2022-07-30T06:21:56;7.57;;;4.38;;
70576;SDS011;58138;43.138;24.702;2022-07-30T06:24:21;4.05;;;3.65;;
70576;SDS011;58138;43.138;24.702;2022-07-30T06:26:47;8.93;;;4.32;;
70576;SDS011;58138;43.138;24.702;2022-07-30T06:29:13;5.00;;;3.97;;
70576;SDS011;58138;43.138;24.702;2022-07-30T06:31:38;5.82;;;3.90;;
70576;SDS011;58138;43.138;24.702;2022-07-30T06:34:04;6.32;;;3.75;;
70576;SDS011;58138;43.138;24.702;2022-07-30T06:36:30;8.07;;;4.40;;
70576;SDS011;58138;43.138;24.702;2022-07-30T06:38:56;15.00;;;4.68;;
70576;SDS011;58138;43.138;24.702;2022-07-30T06:41:21;7.13;;;4.05;;
70576;SDS011;58138;43.138;24.702;2022-07-30T06:43:47;8.60;;;4.93;;
70576;SDS011;58138;43.138;24.702;2022-07-30T06:46:12;6.57;;;4.80;;
70576;SDS011;58138;43.138;24.702;2022-07-30T06:48:37;7.32;;;4.22;;
70576;SDS011;58138;43.138;24.702;2022-07-30T06:51:03;4.82;;;4.20;;
70576;SDS011;58138;43.138;24.702;2022-07-30T06:53:29;4.75;;;4.18;;
70576;SDS011;58138;43.138;24.702;2022-07-30T06:55:54;8.65;;;4.32;;
70576;SDS011;58138;43.138;24.702;2022-07-30T06:58:20;5.22;;;4.20;;
70576;SDS011;58138;43.138;24.702;2022-07-30T07:00:45;7.47;;;4.28;;
70576;SDS011;58138;43.138;24.702;2022-07-30T07:03:11;6.93;;;4.40;;
70576;SDS011;58138;43.138;24.702;2022-07-30T07:05:36;8.15;;;4.20;;
70576;SDS011;58138;43.138;24.702;2022-07-30T07:08:02;6.22;;;4.47;;
70576;SDS011;58138;43.138;24.702;2022-07-30T07:10:28;5.85;;;4.00;;
70576;SDS011;58138;43.138;24.702;2022-07-30T07:12:53;7.18;;;4.00;;
70576;SDS011;58138;43.138;24.702;2022-07-30T07:15:19;11.15;;;4.60;;
70576;SDS011;58138;43.138;24.702;2022-07-30T07:17:45;9.27;;;4.65;;
70576;SDS011;58138;43.138;24.702;2022-07-30T07:20:11;9.75;;;5.00;;
70576;SDS011;58138;43.138;24.702;2022-07-30T07:22:36;7.18;;;5.13;;
70576;SDS011;58138;43.138;24.702;2022-07-30T07:25:02;8.65;;;4.65;;
70576;SDS011;58138;43.138;24.702;2022-07-30T07:27:28;6.65;;;4.65;;
70576;SDS011;58138;43.138;24.702;2022-07-30T07:29:54;8.85;;;4.55;;
70576;SDS011;58138;43.138;24.702;2022-07-30T07:32:19;9.88;;;4.70;;
70576;SDS011;58138;43.138;24.702;2022-07-30T07:34:44;5.38;;;3.90;;
70576;SDS011;58138;43.138;24.702;2022-07-30T07:37:10;8.98;;;4.30;;
70576;SDS011;58138;43.138;24.702;2022-07-30T07:39:36;7.43;;;3.90;;
70576;SDS011;58138;43.138;24.702;2022-07-30T07:42:01;7.28;;;4.40;;
70576;SDS011;58138;43.138;24.702;2022-07-30T07:44:27;6.82;;;5.13;;
70576;SDS011;58138;43.138;24.702;2022-07-30T07:46:53;4.63;;;4.07;;
70576;SDS011;58138;43.138;24.702;2022-07-30T07:49:18;5.15;;;4.38;;
70576;SDS011;58138;43.138;24.702;2022-07-30T07:51:43;13.82;;;4.22;;
70576;SDS011;58138;43.138;24.702;2022-07-30T07:54:09;4.35;;;3.90;;
70576;SDS011;58138;43.138;24.702;2022-07-30T07:56:34;9.82;;;3.70;;
70576;SDS011;58138;43.138;24.702;2022-07-30T07:59:00;6.90;;;3.50;;
70576;SDS011;58138;43.138;24.702;2022-07-30T08:01:25;6.57;;;3.90;;
70576;SDS011;58138;43.138;24.702;2022-07-30T08:03:51;6.25;;;3.58;;
70576;SDS011;58138;43.138;24.702;2022-07-30T08:06:16;6.22;;;3.60;;
70576;SDS011;58138;43.138;24.702;2022-07-30T08:08:42;6.15;;;3.42;;
70576;SDS011;58138;43.138;24.702;2022-07-30T08:11:07;4.43;;;3.63;;
70576;SDS011;58138;43.138;24.702;2022-07-30T08:13:33;5.57;;;4.20;;
70576;SDS011;58138;43.138;24.702;2022-07-30T08:16:00;6.32;;;4.70;;
70576;SDS011;58138;43.138;24.702;2022-07-30T08:18:25;4.80;;;3.47;;
70576;SDS011;58138;43.138;24.702;2022-07-30T08:20:51;7.97;;;4.03;;
70576;SDS011;58138;43.138;24.702;2022-07-30T08:23:16;6.18;;;3.97;;
70576;SDS011;58138;43.138;24.702;2022-07-30T08:25:43;12.48;;;3.90;;
70576;SDS011;58138;43.138;24.702;2022-07-30T08:28:09;7.15;;;3.80;;
70576;SDS011;58138;43.138;24.702;2022-07-30T08:30:34;7.85;;;3.67;;
70576;SDS011;58138;43.138;24.702;2022-07-30T08:33:00;6.15;;;3.60;;
70576;SDS011;58138;43.138;24.702;2022-07-30T08:35:26;5.30;;;3.55;;
70576;SDS011;58138;43.138;24.702;2022-07-30T08:37:51;8.48;;;3.50;;
70576;SDS011;58138;43.138;24.702;2022-07-30T08:40:18;4.18;;;3.80;;
70576;SDS011;58138;43.138;24.702;2022-07-30T08:42:44;7.95;;;4.22;;
70576;SDS011;58138;43.138;24.702;2022-07-30T08:45:11;7.53;;;3.78;;
70576;SDS011;58138;43.138;24.702;2022-07-30T08:47:37;9.38;;;3.85;;
70576;SDS011;58138;43.138;24.702;2022-07-30T08:50:05;4.80;;;3.60;;
70576;SDS011;58138;43.138;24.702;2022-07-30T08:52:33;4.75;;;3.45;;
70576;SDS011;58138;43.138;24.702;2022-07-30T08:55:00;5.57;;;3.75;;
70576;SDS011;58138;43.138;24.702;2022-07-30T08:57:29;6.18;;;3.17;;
70576;SDS011;58138;43.138;24.702;2022-07-30T08:59:59;7.57;;;3.30;;
70576;SDS011;58138;43.138;24.702;2022-07-30T09:02:25;23.10;;;3.83;;
70576;SDS011;58138;43.138;24.702;2022-07-30T09:04:51;7.78;;;3.47;;
70576;SDS011;58138;43.138;24.702;2022-07-30T09:07:17;5.05;;;3.40;;
70576;SDS011;58138;43.138;24.702;2022-07-30T09:09:42;5.38;;;3.25;;
70576;SDS011;58138;43.138;24.702;2022-07-30T09:17:28;4.30;;;3.35;;
70576;SDS011;58138;43.138;24.702;2022-07-30T09:20:09;4.22;;;3.15;;
70576;SDS011;58138;43.138;24.702;2022-07-30T09:22:54;5.22;;;3.42;;
70576;SDS011;58138;43.138;24.702;2022-07-30T09:26:04;5.20;;;3.60;;
70576;SDS011;58138;43.138;24.702;2022-07-30T09:28:11;9.75;;;3.00;;
70576;SDS011;58138;43.138;24.702;2022-07-30T09:36:01;7.40;;;3.72;;
70576;SDS011;58138;43.138;24.702;2022-07-30T09:38:28;7.13;;;3.90;;
70576;SDS011;58138;43.138;24.702;2022-07-30T09:41:02;3.10;;;2.90;;
70576;SDS011;58138;43.138;24.702;2022-07-30T09:43:28;6.05;;;2.90;;
70576;SDS011;58138;43.138;24.702;2022-07-30T09:45:55;4.28;;;3.00;;
70576;SDS011;58138;43.138;24.702;2022-07-30T09:48:23;4.85;;;3.17;;
70576;SDS011;58138;43.138;24.702;2022-07-30T09:50:51;6.85;;;3.10;;
70576;SDS011;58138;43.138;24.702;2022-07-30T09:53:17;3.90;;;2.95;;
70576;SDS011;58138;43.138;24.702;2022-07-30T09:55:43;3.25;;;2.97;;
70576;SDS011;58138;43.138;24.702;2022-07-30T09:58:09;3.50;;;3.20;;
70576;SDS011;58138;43.138;24.702;2022-07-30T10:00:36;5.05;;;2.90;;
70576;SDS011;58138;43.138;24.702;2022-07-30T10:03:19;4.70;;;2.72;;
70576;SDS011;58138;43.138;24.702;2022-07-30T10:05:49;3.38;;;3.08;;
70576;SDS011;58138;43.138;24.702;2022-07-30T10:11:18;6.22;;;3.20;;
70576;SDS011;58138;43.138;24.702;2022-07-30T10:13:46;3.65;;;3.35;;
70576;SDS011;58138;43.138;24.702;2022-07-30T10:16:13;4.32;;;3.80;;
70576;SDS011;58138;43.138;24.702;2022-07-30T10:18:40;4.32;;;2.65;;
70576;SDS011;58138;43.138;24.702;2022-07-30T10:21:06;6.13;;;5.13;;
70576;SDS011;58138;43.138;24.702;2022-07-30T10:23:33;4.82;;;3.10;;
70576;SDS011;58138;43.138;24.702;2022-07-30T10:25:59;3.03;;;2.80;;
70576;SDS011;58138;43.138;24.702;2022-07-30T10:28:26;6.50;;;5.03;;
70576;SDS011;58138;43.138;24.702;2022-07-30T10:30:53;4.18;;;3.45;;
70576;SDS011;58138;43.138;24.702;2022-07-30T10:33:27;6.32;;;2.80;;
70576;SDS011;58138;43.138;24.702;2022-07-30T10:35:54;3.97;;;3.50;;
70576;SDS011;58138;43.138;24.702;2022-07-30T10:38:21;8.05;;;3.70;;
70576;SDS011;58138;43.138;24.702;2022-07-30T10:46:01;6.47;;;2.60;;
70576;SDS011;58138;43.138;24.702;2022-07-30T10:48:33;6.97;;;2.30;;
70576;SDS011;58138;43.138;24.702;2022-07-30T10:50:58;2.70;;;2.42;;
70576;SDS011;58138;43.138;24.702;2022-07-30T10:53:37;7.30;;;2.58;;
70576;SDS011;58138;43.138;24.702;2022-07-30T10:56:19;5.75;;;2.25;;
70576;SDS011;58138;43.138;24.702;2022-07-30T10:58:59;3.15;;;2.30;;
70576;SDS011;58138;43.138;24.702;2022-07-30T11:01:24;3.88;;;2.20;;
70576;SDS011;58138;43.138;24.702;2022-07-30T11:06:51;4.13;;;2.38;;
70576;SDS011;58138;43.138;24.702;2022-07-30T11:12:05;2.53;;;2.33;;
70576;SDS011;58138;43.138;24.702;2022-07-30T11:17:13;2.97;;;2.67;;
70576;SDS011;58138;43.138;24.702;2022-07-30T11:22:29;3.95;;;2.50;;
70576;SDS011;58138;43.138;24.702;2022-07-30T11:25:00;6.35;;;2.10;;
70576;SDS011;58138;43.138;24.702;2022-07-30T11:27:42;4.38;;;2.38;;
70576;SDS011;58138;43.138;24.702;2022-07-30T11:32:44;3.38;;;2.22;;
70576;SDS011;58138;43.138;24.702;2022-07-30T11:35:23;4.63;;;3.53;;
70576;SDS011;58138;43.138;24.702;2022-07-30T11:37:56;8.40;;;2.50;;
70576;SDS011;58138;43.138;24.702;2022-07-30T11:40:25;3.10;;;2.20;;
70576;SDS011;58138;43.138;24.702;2022-07-30T11:43:14;2.13;;;2.00;;
70576;SDS011;58138;43.138;24.702;2022-07-30T11:45:47;3.58;;;2.45;;
70576;SDS011;58138;43.138;24.702;2022-07-30T11:48:17;3.63;;;2.25;;
70576;SDS011;58138;43.138;24.702;2022-07-30T11:50:44;4.25;;;2.50;;
70576;SDS011;58138;43.138;24.702;2022-07-30T11:53:18;4.35;;;2.40;;
70576;SDS011;58138;43.138;24.702;2022-07-30T11:55:50;5.25;;;2.33;;
70576;SDS011;58138;43.138;24.702;2022-07-30T12:01:20;3.03;;;2.20;;
70576;SDS011;58138;43.138;24.702;2022-07-30T12:03:45;4.30;;;2.60;;
70576;SDS011;58138;43.138;24.702;2022-07-30T12:06:11;4.25;;;2.55;;
70576;SDS011;58138;43.138;24.702;2022-07-30T12:08:42;2.72;;;2.40;;
70576;SDS011;58138;43.138;24.702;2022-07-30T12:11:10;4.32;;;2.50;;
70576;SDS011;58138;43.138;24.702;2022-07-30T12:13:36;4.13;;;2.53;;
70576;SDS011;58138;43.138;24.702;2022-07-30T12:16:12;2.63;;;2.20;;
70576;SDS011;58138;43.138;24.702;2022-07-30T12:18:40;4.10;;;2.60;;
70576;SDS011;58138;43.138;24.702;2022-07-30T12:21:07;3.50;;;2.50;;
70576;SDS011;58138;43.138;24.702;2022-07-30T12:23:37;6.72;;;2.72;;
70576;SDS011;58138;43.138;24.702;2022-07-30T12:26:05;2.25;;;2.15;;
70576;SDS011;58138;43.138;24.702;2022-07-30T12:28:31;3.20;;;2.42;;
70576;SDS011;58138;43.138;24.702;2022-07-30T12:30:58;2.85;;;2.45;;
70576;SDS011;58138;43.138;24.702;2022-07-30T12:33:26;3.42;;;2.60;;
70576;SDS011;58138;43.138;24.702;2022-07-30T12:35:56;4.40;;;2.40;;
70576;SDS011;58138;43.138;24.702;2022-07-30T12:38:23;3.28;;;2.28;;
70576;SDS011;58138;43.138;24.702;2022-07-30T12:43:45;3.85;;;2.28;;
70576;SDS011;58138;43.138;24.702;2022-07-30T12:46:36;4.05;;;2.72;;
70576;SDS011;58138;43.138;24.702;2022-07-30T12:49:02;2.42;;;2.15;;
70576;SDS011;58138;43.138;24.702;2022-07-30T12:51:29;7.32;;;2.97;;
70576;SDS011;58138;43.138;24.702;2022-07-30T12:54:18;2.53;;;2.33;;
70576;SDS011;58138;43.138;24.702;2022-07-30T12:59:26;2.90;;;2.70;;
70576;SDS011;58138;43.138;24.702;2022-07-30T13:01:53;3.08;;;2.70;;
70576;SDS011;58138;43.138;24.702;2022-07-30T13:04:20;5.32;;;2.30;;
70576;SDS011;58138;43.138;24.702;2022-07-30T13:09:36;7.32;;;3.78;;
70576;SDS011;58138;43.138;24.702;2022-07-30T13:12:02;2.50;;;2.00;;
70576;SDS011;58138;43.138;24.702;2022-07-30T13:14:29;2.95;;;2.75;;
70576;SDS011;58138;43.138;24.702;2022-07-30T13:16:55;2.53;;;2.33;;
70576;SDS011;58138;43.138;24.702;2022-07-30T13:19:22;3.28;;;2.60;;
70576;SDS011;58138;43.138;24.702;2022-07-30T13:21:47;6.63;;;2.42;;
70576;SDS011;58138;43.138;24.702;2022-07-30T13:24:13;3.00;;;2.17;;
70576;SDS011;58138;43.138;24.702;2022-07-30T13:26:39;4.13;;;2.30;;
70576;SDS011;58138;43.138;24.702;2022-07-30T13:29:04;7.38;;;2.70;;
70576;SDS011;58138;43.138;24.702;2022-07-30T13:31:30;2.47;;;2.05;;
70576;SDS011;58138;43.138;24.702;2022-07-30T13:33:55;2.63;;;2.53;;
70576;SDS011;58138;43.138;24.702;2022-07-30T13:36:21;3.50;;;2.15;;
70576;SDS011;58138;43.138;24.702;2022-07-30T13:38:46;3.25;;;2.20;;
70576;SDS011;58138;43.138;24.702;2022-07-30T13:41:12;3.38;;;2.13;;
70576;SDS011;58138;43.138;24.702;2022-07-30T13:43:37;6.25;;;2.00;;
70576;SDS011;58138;43.138;24.702;2022-07-30T13:46:03;2.80;;;2.00;;
70576;SDS011;58138;43.138;24.702;2022-07-30T13:48:30;3.97;;;2.42;;
70576;SDS011;58138;43.138;24.702;2022-07-30T13:50:56;2.38;;;2.17;;
70576;SDS011;58138;43.138;24.702;2022-07-30T13:53:22;3.72;;;2.10;;
70576;SDS011;58138;43.138;24.702;2022-07-30T13:55:47;3.25;;;1.83;;
70576;SDS011;58138;43.138;24.702;2022-07-30T13:58:13;5.55;;;2.22;;
70576;SDS011;58138;43.138;24.702;2022-07-30T14:00:38;2.10;;;2.00;;
70576;SDS011;58138;43.138;24.702;2022-07-30T14:03:05;2.88;;;2.25;;
70576;SDS011;58138;43.138;24.702;2022-07-30T14:05:32;3.47;;;2.03;;
70576;SDS011;58138;43.138;24.702;2022-07-30T14:07:59;4.13;;;2.35;;
70576;SDS011;58138;43.138;24.702;2022-07-30T14:10:26;2.40;;;2.20;;
70576;SDS011;58138;43.138;24.702;2022-07-30T14:12:52;2.95;;;2.10;;
70576;SDS011;58138;43.138;24.702;2022-07-30T14:15:19;3.20;;;2.10;;
70576;SDS011;58138;43.138;24.702;2022-07-30T14:17:48;2.50;;;2.30;;
70576;SDS011;58138;43.138;24.702;2022-07-30T14:20:14;2.80;;;2.60;;
70576;SDS011;58138;43.138;24.702;2022-07-30T14:22:40;2.72;;;2.30;;
70576;SDS011;58138;43.138;24.702;2022-07-30T14:25:05;9.77;;;2.42;;
70576;SDS011;58138;43.138;24.702;2022-07-30T14:27:31;2.97;;;2.50;;
70576;SDS011;58138;43.138;24.702;2022-07-30T14:29:57;2.50;;;2.30;;
70576;SDS011;58138;43.138;24.702;2022-07-30T14:32:22;2.97;;;2.65;;
70576;SDS011;58138;43.138;24.702;2022-07-30T14:34:48;2.75;;;2.53;;
70576;SDS011;58138;43.138;24.702;2022-07-30T14:37:13;3.08;;;2.70;;
70576;SDS011;58138;43.138;24.702;2022-07-30T14:39:39;3.22;;;2.30;;
70576;SDS011;58138;43.138;24.702;2022-07-30T14:42:04;3.10;;;2.83;;
70576;SDS011;58138;43.138;24.702;2022-07-30T14:44:30;2.88;;;2.58;;
70576;SDS011;58138;43.138;24.702;2022-07-30T14:46:56;3.13;;;2.80;;
70576;SDS011;58138;43.138;24.702;2022-07-30T14:49:21;9.68;;;8.70;;
70576;SDS011;58138;43.138;24.702;2022-07-30T14:51:47;2.65;;;2.42;;
70576;SDS011;58138;43.138;24.702;2022-07-30T14:54:12;4.70;;;2.45;;
70576;SDS011;58138;43.138;24.702;2022-07-30T14:56:38;3.65;;;2.50;;
70576;SDS011;58138;43.138;24.702;2022-07-30T14:59:04;3.13;;;2.75;;
70576;SDS011;58138;43.138;24.702;2022-07-30T15:01:29;3.10;;;2.88;;
70576;SDS011;58138;43.138;24.702;2022-07-30T15:03:55;3.85;;;3.20;;
70576;SDS011;58138;43.138;24.702;2022-07-30T15:06:20;3.83;;;2.45;;
70576;SDS011;58138;43.138;24.702;2022-07-30T15:08:46;5.88;;;3.20;;
70576;SDS011;58138;43.138;24.702;2022-07-30T15:11:12;3.50;;;2.60;;
70576;SDS011;58138;43.138;24.702;2022-07-30T15:13:38;3.75;;;3.30;;
70576;SDS011;58138;43.138;24.702;2022-07-30T15:16:03;5.13;;;2.67;;
70576;SDS011;58138;43.138;24.702;2022-07-30T15:18:30;3.33;;;3.03;;
70576;SDS011;58138;43.138;24.702;2022-07-30T15:20:55;4.05;;;3.67;;
70576;SDS011;58138;43.138;24.702;2022-07-30T15:23:21;3.10;;;2.90;;